Time;durP1;ratioP1;P1;durP2;ratioP2;P2;SDS_P1;SDS_P2;PMS_P1;PMS_P2;Temp;Humidity;BMP_temperature;BMP_pressure;BME280_temperature;BME280_humidity;BME280_pressure;Samples;Min_cycle;Max_cycle;Signal;HPM_P1;HPM_P2
2023/08/13 00:02:19;;;;;;;10.73;2.55;;;;;;;19.93;57.28;101620.66;5010259;28;20037;-66
2023/08/13 00:04:44;;;;;;;9.60;2.72;;;;;;;19.98;57.51;101619.75;4996465;28;20029;-66
2023/08/13 00:07:11;;;;;;;11.25;2.97;;;;;;;19.88;57.56;101617.03;5014505;28;20045;-66
2023/08/13 00:09:36;;;;;;;6.35;2.60;;;;;;;19.95;57.65;101614.69;5015583;28;20030;-67
2023/08/13 00:12:02;;;;;;;7.28;2.70;;;;;;;19.93;57.75;101611.34;5014801;28;20470;-66
2023/08/13 00:14:27;;;;;;;8.30;2.65;;;;;;;19.92;57.86;101618.94;5013461;28;20392;-66
2023/08/13 00:16:53;;;;;;;8.20;3.08;;;;;;;19.86;57.99;101611.69;5012641;28;20125;-66
2023/08/13 00:19:18;;;;;;;9.43;2.88;;;;;;;19.77;58.02;101608.69;5014317;28;20097;-66
2023/08/13 00:21:43;;;;;;;10.45;2.90;;;;;;;19.76;58.60;101606.16;4998319;28;20129;-66
2023/08/13 00:24:09;;;;;;;13.35;3.00;;;;;;;19.68;58.54;101613.28;5011775;28;20819;-66
2023/08/13 00:26:36;;;;;;;9.88;3.50;;;;;;;19.69;58.83;101600.03;5013198;28;20453;-67
2023/08/13 00:29:02;;;;;;;8.75;2.90;;;;;;;19.64;59.00;101605.72;5013855;28;20084;-66
2023/08/13 00:31:28;;;;;;;7.75;2.65;;;;;;;19.56;59.03;101605.19;5013029;28;20072;-66
2023/08/13 00:33:53;;;;;;;9.88;2.75;;;;;;;19.57;59.20;101604.06;5011876;28;20025;-67
2023/08/13 00:36:18;;;;;;;9.10;2.97;;;;;;;19.52;59.36;101608.88;5013022;28;20057;-67
2023/08/13 00:38:43;;;;;;;10.23;2.83;;;;;;;19.55;59.38;101603.50;5001262;28;20034;-67
2023/08/13 00:41:09;;;;;;;7.30;2.83;;;;;;;19.53;59.29;101607.75;5014900;28;20029;-67
2023/08/13 00:43:38;;;;;;;8.90;2.95;;;;;;;19.49;59.38;101609.47;5012822;28;20041;-67
2023/08/13 00:46:04;;;;;;;9.57;3.00;;;;;;;19.46;59.57;101605.28;5013527;28;20073;-67
2023/08/13 00:48:30;;;;;;;12.55;2.50;;;;;;;19.45;59.82;101606.41;5013075;28;20026;-67
2023/08/13 00:50:56;;;;;;;11.68;2.63;;;;;;;19.46;59.70;101605.28;5014903;28;20434;-67
2023/08/13 00:53:23;;;;;;;9.52;2.45;;;;;;;19.35;60.01;101593.25;5013156;28;20056;-67
2023/08/13 00:55:48;;;;;;;7.35;3.22;;;;;;;19.36;60.10;101600.56;5010749;28;20026;-67
2023/08/13 00:58:14;;;;;;;13.75;3.20;;;;;;;19.34;60.15;101599.19;5013074;28;20080;-67
2023/08/13 01:00:39;;;;;;;10.05;2.90;;;;;;;19.38;60.27;101595.50;5013089;28;20484;-67
2023/08/13 01:03:05;;;;;;;7.68;2.47;;;;;;;19.34;60.03;101600.03;5009816;28;20053;-67
2023/08/13 01:05:57;;;;;;;13.15;2.75;;;;;;;19.41;60.05;101598.84;5013474;28;20030;-67
2023/08/13 01:08:49;;;;;;;8.77;2.80;;;;;;;19.39;59.91;101596.34;5012934;28;20560;-67
2023/08/13 01:11:23;;;;;;;8.82;3.20;;;;;;;19.43;59.87;101593.78;5007330;28;20022;-67
2023/08/13 01:14:03;;;;;;;11.52;2.75;;;;;;;19.31;59.95;101589.34;5010322;28;20041;-67
2023/08/13 01:16:29;;;;;;;7.57;2.30;;;;;;;19.24;60.24;101605.75;5011545;28;20072;-67
2023/08/13 01:18:54;;;;;;;11.90;2.80;;;;;;;19.28;60.27;101597.53;5013299;28;20050;-67
2023/08/13 01:21:19;;;;;;;10.82;2.63;;;;;;;19.20;60.48;101604.66;5012501;28;20120;-67
2023/08/13 01:23:45;;;;;;;9.02;3.20;;;;;;;19.12;60.76;101608.09;5014190;28;20092;-67
2023/08/13 01:26:17;;;;;;;7.72;2.60;;;;;;;19.13;60.78;101609.75;5012845;28;20179;-67
2023/08/13 01:28:49;;;;;;;10.75;2.58;;;;;;;19.05;61.22;101610.38;5010869;28;20042;-67
2023/08/13 01:31:23;;;;;;;7.65;2.30;;;;;;;19.12;60.77;101603.28;5006262;28;20022;-67
2023/08/13 01:33:50;;;;;;;8.10;2.60;;;;;;;19.13;60.69;101598.50;4998054;28;20443;-67
2023/08/13 01:36:16;;;;;;;10.85;2.55;;;;;;;19.04;61.03;101605.88;4993578;28;20386;-67
2023/08/13 01:38:43;;;;;;;8.98;2.55;;;;;;;19.11;60.83;101601.63;5011474;28;20028;-67
2023/08/13 01:41:08;;;;;;;8.50;2.38;;;;;;;19.09;60.79;101605.84;5011151;28;20044;-66
2023/08/13 01:43:34;;;;;;;8.85;2.42;;;;;;;19.04;61.08;101605.88;5013245;28;20021;-67
2023/08/13 01:46:01;;;;;;;9.82;2.45;;;;;;;19.04;61.02;101605.88;5012911;28;20110;-66
2023/08/13 01:48:27;;;;;;;10.75;2.45;;;;;;;19.03;61.29;101601.41;5011885;28;20393;-66
2023/08/13 01:50:52;;;;;;;8.35;2.20;;;;;;;19.03;61.10;101610.69;5006146;28;20076;-66
2023/08/13 01:53:17;;;;;;;9.98;2.70;;;;;;;19.04;61.26;101598.28;5012256;28;20030;-66
2023/08/13 01:55:43;;;;;;;8.73;2.30;;;;;;;19.05;61.05;101604.75;5001683;28;20124;-67
2023/08/13 01:58:09;;;;;;;8.88;2.47;;;;;;;19.04;61.36;101601.09;5012415;28;20132;-66
2023/08/13 02:00:34;;;;;;;5.65;2.22;;;;;;;19.01;61.36;101606.47;5012155;28;20539;-67
2023/08/13 02:02:59;;;;;;;9.63;2.40;;;;;;;19.02;61.40;101596.88;5009769;28;20033;-66
2023/08/13 02:05:25;;;;;;;8.15;2.30;;;;;;;18.96;61.56;101603.69;5012400;28;20032;-66
2023/08/13 02:07:50;;;;;;;9.77;2.40;;;;;;;18.91;61.54;101600.94;5008746;28;20034;-66
2023/08/13 02:10:15;;;;;;;9.13;2.45;;;;;;;18.94;61.81;101603.13;5011209;28;20033;-66
2023/08/13 02:12:41;;;;;;;10.45;2.55;;;;;;;18.99;61.85;101603.13;5010577;28;20030;-66
2023/08/13 02:15:06;;;;;;;9.95;2.30;;;;;;;18.94;61.89;101601.16;5013107;28;20025;-66
2023/08/13 02:17:32;;;;;;;8.98;2.10;;;;;;;18.91;61.70;101595.31;5011292;28;20535;-66
2023/08/13 02:19:57;;;;;;;8.43;2.20;;;;;;;18.92;61.89;101597.81;5010647;28;20060;-66
2023/08/13 02:22:22;;;;;;;11.52;2.75;;;;;;;18.81;61.93;101591.41;5011625;28;20097;-66
2023/08/13 02:24:48;;;;;;;8.45;2.50;;;;;;;18.80;62.53;101595.34;5002330;28;20034;-66
2023/08/13 02:27:13;;;;;;;8.20;2.38;;;;;;;18.87;62.20;101593.06;4993147;28;20104;-66
2023/08/13 02:29:38;;;;;;;9.45;2.80;;;;;;;18.76;62.35;101593.41;5005890;28;20033;-67
2023/08/13 02:32:04;;;;;;;7.20;1.83;;;;;;;18.84;62.45;101593.63;5010983;28;20160;-67
2023/08/13 02:34:36;;;;;;;7.43;2.55;;;;;;;18.71;62.66;101591.47;5011230;28;20034;-66
2023/08/13 02:37:01;;;;;;;10.07;2.53;;;;;;;18.73;62.65;101582.75;5011878;28;20026;-67
2023/08/13 02:39:27;;;;;;;6.78;2.45;;;;;;;18.68;62.88;101589.22;5011295;28;20072;-67
2023/08/13 02:41:52;;;;;;;9.35;2.33;;;;;;;18.70;62.87;101589.78;5006902;28;20018;-67
2023/08/13 02:44:17;;;;;;;8.75;2.65;;;;;;;18.66;63.10;101588.66;5009823;28;20022;-67
2023/08/13 02:46:43;;;;;;;5.95;2.25;;;;;;;18.64;63.17;101585.28;5010945;28;20407;-67
2023/08/13 02:49:08;;;;;;;8.68;2.47;;;;;;;18.60;63.45;101590.66;5012617;28;20026;-67
2023/08/13 02:51:34;;;;;;;7.82;2.38;;;;;;;18.65;63.25;101585.00;5009819;28;20045;-67
2023/08/13 02:53:59;;;;;;;8.05;2.00;;;;;;;18.64;63.34;101585.28;5011101;28;20034;-67
2023/08/13 02:56:24;;;;;;;6.82;2.50;;;;;;;18.56;63.50;101583.09;5012637;28;20108;-67
2023/08/13 02:58:50;;;;;;;8.68;2.10;;;;;;;18.61;63.34;101581.06;5010806;28;20026;-67
2023/08/13 03:01:15;;;;;;;7.00;2.70;;;;;;;18.59;63.64;101582.53;5004603;28;20470;-67
2023/08/13 03:03:40;;;;;;;7.75;2.20;;;;;;;18.62;63.69;101581.91;5011348;28;20030;-67
2023/08/13 03:06:06;;;;;;;10.05;2.63;;;;;;;18.60;63.67;101579.41;5011408;28;20045;-67
2023/08/13 03:08:31;;;;;;;8.18;2.40;;;;;;;18.57;63.63;101581.94;5011714;28;20037;-67
2023/08/13 03:10:56;;;;;;;9.43;2.78;;;;;;;18.53;63.76;101578.88;5012439;28;20028;-67
2023/08/13 03:13:22;;;;;;;10.50;2.40;;;;;;;18.50;64.11;101587.03;5010573;28;20061;-67
2023/08/13 03:15:47;;;;;;;12.02;2.35;;;;;;;18.51;64.05;101580.28;5012281;28;20030;-67
2023/08/13 03:18:13;;;;;;;7.47;2.25;;;;;;;18.43;64.17;101578.06;5007359;28;20037;-67
2023/08/13 03:20:39;;;;;;;7.88;2.38;;;;;;;18.44;64.07;101572.19;5010636;28;20061;-67
2023/08/13 03:23:04;;;;;;;7.93;2.30;;;;;;;18.44;64.18;101580.63;5012102;28;20064;-67
2023/08/13 03:25:30;;;;;;;9.85;2.45;;;;;;;18.43;64.35;101578.06;5011183;28;20120;-67
2023/08/13 03:27:55;;;;;;;8.75;2.05;;;;;;;18.42;64.20;101580.06;5007720;28;20060;-67
2023/08/13 03:30:20;;;;;;;10.52;2.60;;;;;;;18.36;64.27;101582.06;5012220;28;20026;-67
2023/08/13 03:32:46;;;;;;;8.80;2.10;;;;;;;18.36;64.54;101589.66;5012146;28;20129;-67
2023/08/13 03:35:11;;;;;;;6.85;2.10;;;;;;;18.39;64.33;101578.69;5006142;28;20114;-67
2023/08/13 03:37:36;;;;;;;8.00;2.47;;;;;;;18.32;64.64;101577.31;5010209;28;20030;-67
2023/08/13 03:40:02;;;;;;;8.13;2.35;;;;;;;18.32;64.44;101580.13;5009569;28;20081;-67
2023/08/13 03:42:27;;;;;;;12.05;2.85;;;;;;;18.24;65.08;101578.75;5010156;28;20044;-67
2023/08/13 03:44:52;;;;;;;8.48;2.60;;;;;;;18.23;64.77;101579.84;5011902;28;20041;-66
2023/08/13 03:47:18;;;;;;;6.82;2.40;;;;;;;18.22;64.84;101577.34;5011025;28;20038;-67
2023/08/13 03:49:43;;;;;;;8.70;2.47;;;;;;;18.25;64.44;101582.38;5011087;28;20103;-67
2023/08/13 03:52:09;;;;;;;11.27;2.50;;;;;;;18.18;64.78;101581.84;5007871;28;20037;-66
2023/08/13 03:54:35;;;;;;;5.38;2.10;;;;;;;18.17;64.87;101585.78;5010031;28;20450;-66
2023/08/13 03:57:00;;;;;;;13.63;2.55;;;;;;;18.23;64.68;101573.38;5011353;28;20057;-66
2023/08/13 03:59:25;;;;;;;8.50;2.50;;;;;;;18.18;64.83;101577.06;5012026;28;20030;-66
2023/08/13 04:01:51;;;;;;;9.55;2.38;;;;;;;18.24;64.88;101586.34;5009597;28;20025;-67
2023/08/13 04:04:16;;;;;;;10.18;2.45;;;;;;;18.18;65.02;101585.50;5010979;28;20037;-67
2023/08/13 04:06:43;;;;;;;7.25;2.92;;;;;;;18.14;65.14;101590.00;5007504;28;20065;-67
2023/08/13 04:09:08;;;;;;;7.43;2.58;;;;;;;18.21;65.03;101592.53;5002319;28;20370;-67
2023/08/13 04:11:33;;;;;;;8.00;2.55;;;;;;;18.10;65.21;101592.53;5011734;28;20036;-67
2023/08/13 04:13:59;;;;;;;8.73;2.53;;;;;;;18.11;65.27;101593.38;5015202;28;20026;-67
2023/08/13 04:16:24;;;;;;;9.32;2.50;;;;;;;18.06;65.42;101590.59;5014622;28;20030;-67
2023/08/13 04:18:52;;;;;;;7.25;2.80;;;;;;;18.09;65.33;101590.03;5015185;28;20036;-67
2023/08/13 04:21:18;;;;;;;10.95;2.92;;;;;;;18.02;65.75;101595.94;5013721;28;20034;-68
2023/08/13 04:23:43;;;;;;;7.68;2.65;;;;;;;17.99;65.72;101590.06;5012586;28;20084;-67
2023/08/13 04:26:08;;;;;;;10.25;3.00;;;;;;;17.96;65.81;101594.28;5002341;28;20398;-67
2023/08/13 04:28:34;;;;;;;8.52;2.85;;;;;;;17.95;65.77;101589.78;5012496;28;20038;-66
2023/08/13 04:31:00;;;;;;;8.20;2.75;;;;;;;17.98;65.87;101591.19;5013174;28;20053;-67
2023/08/13 04:33:25;;;;;;;8.88;2.60;;;;;;;17.94;65.97;101592.88;5015037;28;20026;-67
2023/08/13 04:35:54;;;;;;;7.20;2.80;;;;;;;17.96;66.20;101587.81;5013083;28;20026;-67
2023/08/13 04:38:20;;;;;;;9.35;2.42;;;;;;;17.94;66.10;101588.09;5013245;28;20038;-67
2023/08/13 04:40:47;;;;;;;10.95;2.67;;;;;;;17.97;65.93;101586.69;5014144;28;20053;-67
2023/08/13 04:43:12;;;;;;;13.43;3.08;;;;;;;17.98;65.99;101585.56;5009765;28;20080;-67
2023/08/13 04:45:38;;;;;;;7.75;2.33;;;;;;;18.00;66.06;101580.50;5004519;28;20393;-67
2023/08/13 04:48:03;;;;;;;8.18;2.83;;;;;;;17.95;66.23;101588.94;5014744;28;20448;-66
2023/08/13 04:50:28;;;;;;;9.52;2.40;;;;;;;17.95;66.27;101605.78;5014609;28;20036;-67
2023/08/13 04:52:54;;;;;;;9.63;3.00;;;;;;;17.97;65.97;101600.75;5014131;28;20101;-66
2023/08/13 04:55:19;;;;;;;6.40;2.50;;;;;;;17.96;66.25;101610.28;5009747;28;20369;-67
2023/08/13 04:57:44;;;;;;;8.27;2.50;;;;;;;17.97;66.45;101597.94;5012705;28;20049;-67
2023/08/13 05:00:10;;;;;;;9.88;2.97;;;;;;;18.00;66.39;101594.53;5012630;28;20069;-67
2023/08/13 05:02:36;;;;;;;12.93;2.88;;;;;;;17.98;66.33;101592.03;5005406;28;20057;-66
2023/08/13 05:05:01;;;;;;;9.55;2.70;;;;;;;17.96;66.30;101599.91;5014452;28;20018;-66
2023/08/13 05:07:26;;;;;;;11.63;2.85;;;;;;;17.92;66.64;101593.19;5013851;28;20382;-66
2023/08/13 05:09:52;;;;;;;9.25;3.25;;;;;;;17.97;66.57;101592.31;5014691;28;20123;-66
2023/08/13 05:12:17;;;;;;;7.15;2.78;;;;;;;18.00;66.38;101584.16;5007301;28;20099;-66
2023/08/13 05:14:43;;;;;;;8.80;3.15;;;;;;;17.98;66.65;101579.94;5007430;28;20041;-66
2023/08/13 05:17:21;;;;;;;11.20;3.10;;;;;;;18.01;66.42;101587.81;5011674;28;20033;-66
2023/08/13 05:19:47;;;;;;;8.15;3.22;;;;;;;17.97;66.46;101587.53;5011562;28;20034;-66
2023/08/13 05:22:13;;;;;;;7.85;3.00;;;;;;;17.99;66.55;101590.06;5014152;28;20084;-66
2023/08/13 05:24:38;;;;;;;7.53;3.10;;;;;;;18.02;66.57;101592.28;5011405;28;20042;-66
2023/08/13 05:27:04;;;;;;;11.75;2.88;;;;;;;17.99;66.50;101604.09;5013411;28;20060;-66
2023/08/13 05:29:29;;;;;;;13.13;2.85;;;;;;;18.01;67.02;101599.03;5014226;28;20029;-66
2023/08/13 05:31:54;;;;;;;8.63;3.08;;;;;;;18.02;66.67;101593.13;5009349;28;20033;-66
2023/08/13 05:34:20;;;;;;;7.05;2.80;;;;;;;18.05;66.66;101600.16;5010471;28;20030;-66
2023/08/13 05:36:45;;;;;;;10.60;3.33;;;;;;;17.96;67.05;101599.03;5011281;28;20535;-66
2023/08/13 05:39:11;;;;;;;10.32;3.15;;;;;;;17.98;67.17;101605.22;5013943;28;20466;-67
2023/08/13 05:41:36;;;;;;;9.73;3.00;;;;;;;18.04;66.72;101598.47;5012042;28;20040;-67
2023/08/13 05:44:02;;;;;;;12.98;3.00;;;;;;;18.02;66.86;101597.91;5012741;28;20416;-66
2023/08/13 05:46:28;;;;;;;11.10;3.30;;;;;;;18.02;67.04;101597.91;5009020;28;20029;-67
2023/08/13 05:48:53;;;;;;;8.05;2.95;;;;;;;18.01;67.04;101607.47;4996753;28;20048;-66
2023/08/13 05:51:18;;;;;;;10.38;3.03;;;;;;;18.01;67.17;101604.66;4994155;28;20447;-66
2023/08/13 05:53:43;;;;;;;8.25;3.28;;;;;;;18.07;67.02;101611.94;4996495;28;20643;-67
2023/08/13 05:56:09;;;;;;;8.60;2.90;;;;;;;18.08;66.99;101613.63;5011846;28;20033;-66
2023/08/13 05:58:34;;;;;;;11.80;3.10;;;;;;;18.10;66.96;101617.81;5012809;28;20389;-66
2023/08/13 06:01:00;;;;;;;13.82;2.92;;;;;;;18.11;67.01;101613.88;5012017;28;20120;-67
2023/08/13 06:03:25;;;;;;;7.80;2.95;;;;;;;18.11;67.14;101618.66;5005452;28;20069;-67
2023/08/13 06:05:51;;;;;;;8.13;2.92;;;;;;;18.12;67.33;101614.75;4997480;28;20126;-67
2023/08/13 06:08:16;;;;;;;8.05;2.75;;;;;;;18.19;67.22;101614.44;4993777;28;20038;-67
2023/08/13 06:10:41;;;;;;;7.72;3.10;;;;;;;18.19;67.50;101615.25;4999277;28;20384;-67
2023/08/13 06:13:07;;;;;;;6.55;2.45;;;;;;;18.20;67.25;101611.34;5013222;28;20034;-67
2023/08/13 06:15:32;;;;;;;10.27;2.83;;;;;;;18.18;67.52;101613.59;5011563;28;20046;-67
2023/08/13 06:17:57;;;;;;;9.30;2.67;;;;;;;18.22;66.98;101614.69;5011909;28;20469;-67
2023/08/13 06:20:23;;;;;;;12.57;3.10;;;;;;;18.25;67.23;101618.91;5013077;28;20068;-67
2023/08/13 06:22:49;;;;;;;9.23;2.97;;;;;;;18.25;67.16;101621.72;5012458;28;20079;-66
2023/08/13 06:25:14;;;;;;;8.70;2.88;;;;;;;18.26;67.48;101618.63;5012882;28;20091;-66
2023/08/13 06:27:39;;;;;;;7.63;2.50;;;;;;;18.33;67.17;101618.31;5007786;28;20053;-66
2023/08/13 06:30:06;;;;;;;6.68;2.70;;;;;;;18.40;67.13;101618.88;5010479;28;20034;-66
2023/08/13 06:32:31;;;;;;;6.88;2.72;;;;;;;18.43;67.01;101614.63;5007248;28;20038;-66
2023/08/13 06:34:56;;;;;;;9.80;2.53;;;;;;;18.44;66.84;101613.50;5012355;28;20022;-66
2023/08/13 06:37:22;;;;;;;10.75;2.72;;;;;;;18.44;66.93;101616.31;5008704;28;20037;-67
2023/08/13 06:39:48;;;;;;;8.18;2.70;;;;;;;18.44;66.93;101610.69;5008250;28;20034;-66
2023/08/13 06:42:13;;;;;;;8.57;2.42;;;;;;;18.49;67.12;101608.69;5007114;28;20466;-66
2023/08/13 06:44:38;;;;;;;5.53;2.50;;;;;;;18.52;67.46;101612.91;5008945;28;20385;-66
2023/08/13 06:47:04;;;;;;;9.70;2.75;;;;;;;18.58;67.33;101617.38;5005613;28;20026;-66
2023/08/13 06:49:29;;;;;;;8.75;3.17;;;;;;;18.60;67.38;101621.59;5003930;28;20029;-66
2023/08/13 06:51:55;;;;;;;8.27;2.85;;;;;;;18.63;67.53;101618.19;5008539;28;20041;-65
2023/08/13 06:54:20;;;;;;;9.88;3.35;;;;;;;18.60;67.61;101617.94;5007539;28;20041;-67
2023/08/13 06:56:45;;;;;;;10.82;2.70;;;;;;;18.63;67.60;101617.38;5005292;28;20470;-66
2023/08/13 06:59:11;;;;;;;12.73;3.28;;;;;;;18.70;67.21;101617.03;5010478;28;20034;-68
2023/08/13 07:01:37;;;;;;;7.07;2.80;;;;;;;18.73;67.39;101611.69;5001625;28;20034;-69
2023/08/13 07:04:02;;;;;;;10.52;3.10;;;;;;;18.74;67.22;101612.53;5008559;28;20026;-66
2023/08/13 07:06:28;;;;;;;6.30;2.30;;;;;;;18.79;67.58;101613.38;5004260;28;20059;-67
2023/08/13 07:08:53;;;;;;;7.57;2.65;;;;;;;18.79;67.41;101607.75;5007691;28;20072;-66
2023/08/13 07:11:19;;;;;;;9.82;2.58;;;;;;;18.81;67.98;101616.72;5008824;28;20041;-66
2023/08/13 07:13:44;;;;;;;9.73;2.60;;;;;;;18.84;67.25;101612.50;5007607;28;20521;-67
2023/08/13 07:16:12;;;;;;;8.60;2.80;;;;;;;18.84;67.60;101607.69;4997423;28;20022;-68
2023/08/13 07:18:38;;;;;;;10.20;2.67;;;;;;;18.89;67.20;101610.47;5006127;28;20383;-70
2023/08/13 07:21:06;;;;;;;7.85;2.45;;;;;;;18.95;67.91;101607.66;5000479;28;20032;-66
2023/08/13 07:23:31;;;;;;;7.70;2.53;;;;;;;19.02;67.53;101610.94;5008717;28;20037;-66
2023/08/13 07:25:57;;;;;;;7.47;2.50;;;;;;;19.09;67.70;101606.69;5008103;28;20034;-67
2023/08/13 07:28:22;;;;;;;13.60;3.22;;;;;;;19.14;67.54;101608.66;5011951;28;20038;-66
2023/08/13 07:30:47;;;;;;;7.70;2.50;;;;;;;19.14;67.70;101605.84;5009512;28;20049;-65
2023/08/13 07:33:13;;;;;;;9.70;2.60;;;;;;;19.23;67.48;101617.31;5009148;28;20148;-66
2023/08/13 07:35:39;;;;;;;9.25;2.30;;;;;;;19.28;67.98;101606.00;5010168;28;20180;-65
2023/08/13 07:38:05;;;;;;;9.32;2.30;;;;;;;19.32;67.56;101605.09;5008992;28;20088;-66
2023/08/13 07:40:30;;;;;;;9.77;2.65;;;;;;;19.38;67.40;101595.50;5010177;28;20030;-67
2023/08/13 07:43:00;;;;;;;6.43;2.17;;;;;;;19.44;67.32;101601.06;5011988;28;20156;-68
2023/08/13 07:45:26;;;;;;;8.63;2.25;;;;;;;19.49;68.17;101601.88;5009480;28;20034;-69
2023/08/13 07:47:52;;;;;;;8.52;2.22;;;;;;;19.57;67.95;101608.84;5013665;28;20030;-67
2023/08/13 07:50:17;;;;;;;10.18;2.83;;;;;;;19.58;67.84;101608.56;5013264;28;20041;-67
2023/08/13 07:52:42;;;;;;;10.60;2.40;;;;;;;19.65;67.57;101605.44;5005995;28;20042;-67
2023/08/13 07:55:08;;;;;;;11.65;3.03;;;;;;;19.71;67.93;101600.59;5007600;28;20026;-67
2023/08/13 07:57:34;;;;;;;11.82;2.47;;;;;;;19.78;67.40;101599.09;5015799;28;20026;-68
2023/08/13 07:59:59;;;;;;;12.73;2.90;;;;;;;19.84;67.07;101597.91;5015689;28;20041;-67
2023/08/13 08:02:24;;;;;;;8.85;2.50;;;;;;;19.94;66.97;101601.75;5013301;28;20130;-66
2023/08/13 08:04:50;;;;;;;8.50;2.05;;;;;;;20.01;66.40;101590.97;5014722;28;20018;-66
2023/08/13 08:07:18;;;;;;;10.05;2.55;;;;;;;20.06;66.08;101600.22;5015483;28;20461;-66
2023/08/13 08:09:44;;;;;;;8.07;2.38;;;;;;;20.13;66.16;101599.84;5011863;28;20135;-67
2023/08/13 08:12:09;;;;;;;12.93;2.65;;;;;;;20.13;65.01;101599.03;5009152;28;20026;-67
2023/08/13 08:14:34;;;;;;;9.18;2.13;;;;;;;20.07;64.15;101603.84;5013670;28;20104;-66
2023/08/13 08:17:05;;;;;;;7.80;1.98;;;;;;;20.04;64.56;101596.88;5014824;28;20026;-67
2023/08/13 08:19:30;;;;;;;9.30;2.10;;;;;;;20.02;64.81;101595.47;5015618;28;20083;-66
2023/08/13 08:21:56;;;;;;;5.63;2.10;;;;;;;20.05;65.17;101611.78;5013854;28;20104;-67
2023/08/13 08:24:23;;;;;;;7.40;2.20;;;;;;;20.02;64.53;101599.13;5012410;28;20199;-66
2023/08/13 08:26:48;;;;;;;11.38;2.25;;;;;;;20.00;64.71;101609.00;5011918;28;20974;-66
2023/08/13 08:29:13;;;;;;;11.90;2.40;;;;;;;19.97;65.04;101599.19;5002347;28;20608;-66
2023/08/13 08:31:38;;;;;;;10.60;2.35;;;;;;;19.99;64.80;101604.50;4998908;28;20050;-66
2023/08/13 08:34:04;;;;;;;10.70;2.00;;;;;;;20.01;65.04;101599.44;5011143;28;20057;-68
2023/08/13 08:36:29;;;;;;;7.22;2.20;;;;;;;20.01;65.11;101607.88;5014158;28;20616;-67
2023/08/13 08:38:54;;;;;;;7.53;2.20;;;;;;;20.00;64.75;101595.78;5014656;28;20096;-68
2023/08/13 08:41:21;;;;;;;9.88;2.10;;;;;;;20.03;65.04;101599.97;5015000;28;20030;-68
2023/08/13 08:43:48;;;;;;;10.18;2.83;;;;;;;20.04;64.21;101596.00;5011158;28;20030;-67
2023/08/13 08:46:15;;;;;;;11.10;2.50;;;;;;;20.08;64.70;101597.94;5014223;28;20030;-67
2023/08/13 08:48:41;;;;;;;11.88;2.38;;;;;;;20.10;64.19;101592.84;5009313;28;20477;-67
2023/08/13 08:51:07;;;;;;;10.23;2.33;;;;;;;20.15;63.30;101588.28;5013196;28;20084;-67
2023/08/13 08:53:34;;;;;;;7.55;2.17;;;;;;;20.19;63.63;101587.38;5014783;28;20036;-68
2023/08/13 08:56:00;;;;;;;8.13;2.25;;;;;;;20.25;64.02;101591.81;5013601;28;20474;-67
2023/08/13 08:58:25;;;;;;;7.28;2.30;;;;;;;20.36;64.88;101586.91;5012862;28;20061;-68
2023/08/13 09:00:56;;;;;;;8.52;2.05;;;;;;;20.42;64.39;101579.19;5014785;28;20371;-67
2023/08/13 09:03:22;;;;;;;8.07;2.33;;;;;;;20.48;63.53;101581.66;5014790;28;20082;-67
2023/08/13 09:05:48;;;;;;;7.53;2.58;;;;;;;20.49;62.43;101580.53;5013779;28;20026;-67
2023/08/13 09:08:13;;;;;;;8.27;2.08;;;;;;;20.47;62.69;101577.13;5001535;28;20039;-68
2023/08/13 09:10:42;;;;;;;8.25;2.10;;;;;;;20.50;62.56;101572.91;4994811;28;20523;-68
2023/08/13 09:13:09;;;;;;;12.02;2.45;;;;;;;20.56;63.03;101569.72;4994332;28;20031;-67
2023/08/13 09:15:58;;;;;;;7.70;2.28;;;;;;;20.61;61.52;101580.09;4994779;28;20521;-67
2023/08/13 09:18:23;;;;;;;7.72;2.10;;;;;;;20.65;60.81;101560.59;4993894;28;20042;-68
2023/08/13 09:20:49;;;;;;;7.97;2.20;;;;;;;20.73;61.10;101562.72;4994284;28;20044;-67
2023/08/13 09:23:22;;;;;;;8.40;2.20;;;;;;;20.81;61.48;101565.69;5012101;28;20030;-67
2023/08/13 09:25:55;;;;;;;9.50;2.15;;;;;;;20.88;61.37;101567.31;5009404;28;20030;-68
2023/08/13 09:28:20;;;;;;;8.50;2.15;;;;;;;20.87;60.48;101563.66;5013863;28;20448;-67
2023/08/13 09:30:46;;;;;;;7.75;2.40;;;;;;;20.87;60.17;101559.97;5014137;28;20026;-68
2023/08/13 09:33:14;;;;;;;9.20;2.13;;;;;;;20.87;59.78;101559.97;5013327;28;20025;-68
2023/08/13 09:35:41;;;;;;;8.40;2.60;;;;;;;20.94;59.88;101557.59;5013919;28;20455;-68
2023/08/13 09:38:06;;;;;;;10.57;2.50;;;;;;;20.99;59.42;101549.09;5012181;28;20076;-68
2023/08/13 09:40:32;;;;;;;12.07;3.05;;;;;;;21.01;59.74;101560.88;5013401;28;20030;-68
2023/08/13 09:42:58;;;;;;;6.65;2.38;;;;;;;21.08;59.48;101541.59;5002576;28;20036;-68
2023/08/13 09:45:27;;;;;;;8.55;2.13;;;;;;;21.14;59.48;101542.31;4994360;28;20026;-68
2023/08/13 09:47:55;;;;;;;7.63;2.47;;;;;;;21.24;59.73;101528.88;4993511;28;20026;-68
2023/08/13 09:50:22;;;;;;;8.18;2.35;;;;;;;21.39;60.00;101529.81;4994068;28;20398;-68
2023/08/13 09:52:47;;;;;;;6.68;2.30;;;;;;;21.39;59.39;101526.97;5001990;28;20168;-68
2023/08/13 09:55:15;;;;;;;9.43;2.30;;;;;;;21.46;59.13;101530.25;5013045;28;20484;-68
2023/08/13 09:57:43;;;;;;;9.43;2.28;;;;;;;21.53;58.96;101536.31;5013495;28;20029;-68
2023/08/13 10:00:11;;;;;;;7.43;2.15;;;;;;;21.56;58.39;101527.22;5013483;28;20393;-68
2023/08/13 10:02:38;;;;;;;7.30;2.10;;;;;;;21.58;58.32;101524.94;5012811;28;20030;-67
2023/08/13 10:05:04;;;;;;;10.38;2.70;;;;;;;21.61;58.69;101526.28;5013751;28;20042;-68
2023/08/13 10:07:30;;;;;;;7.88;2.22;;;;;;;21.59;57.73;101520.94;5012654;28;20516;-67
2023/08/13 10:09:56;;;;;;;12.05;2.53;;;;;;;21.60;57.40;101519.78;5002096;28;20046;-68
2023/08/13 10:12:22;;;;;;;10.25;2.28;;;;;;;21.71;58.54;101521.28;4993671;28;20109;-68
2023/08/13 10:14:48;;;;;;;8.00;2.42;;;;;;;21.83;58.29;101522.75;4992927;28;20165;-68
2023/08/13 10:17:18;;;;;;;9.15;2.47;;;;;;;21.87;57.80;101526.63;4993606;28;20037;-68
2023/08/13 10:19:48;;;;;;;7.78;2.75;;;;;;;21.89;57.65;101528.00;4993679;28;20036;-68
2023/08/13 10:22:13;;;;;;;9.07;2.17;;;;;;;21.84;56.48;101519.59;4993118;28;20038;-67
2023/08/13 10:24:41;;;;;;;7.38;2.50;;;;;;;21.88;57.94;101519.81;5002774;28;20033;-66
2023/08/13 10:27:10;;;;;;;6.60;2.38;;;;;;;21.89;58.19;101519.53;4998299;28;20061;-66
2023/08/13 10:29:40;;;;;;;11.07;2.97;;;;;;;21.84;56.80;101519.59;5001534;28;20117;-68
2023/08/13 10:32:14;;;;;;;8.43;2.15;;;;;;;21.92;58.99;101516.03;5005552;28;20101;-68
2023/08/13 10:34:50;;;;;;;10.35;2.53;;;;;;;21.84;58.00;101513.97;5013152;28;20075;-68
2023/08/13 10:37:17;;;;;;;8.40;2.40;;;;;;;21.80;57.40;101516.56;5012089;28;20551;-68
2023/08/13 10:39:45;;;;;;;7.05;2.10;;;;;;;21.78;57.58;101507.59;5009370;28;20164;-67
2023/08/13 10:42:31;;;;;;;6.13;2.58;;;;;;;21.90;58.64;101509.88;5000945;28;20029;-65
2023/08/13 10:45:04;;;;;;;8.75;2.45;;;;;;;22.01;58.58;101514.19;5005304;28;20835;-67
2023/08/13 10:47:53;;;;;;;8.80;2.33;;;;;;;22.11;57.84;101507.47;5008162;28;20818;-67
2023/08/13 10:50:38;;;;;;;8.65;2.55;;;;;;;22.23;57.53;101501.31;5005245;28;20029;-67
2023/08/13 10:53:12;;;;;;;10.15;2.70;;;;;;;22.20;55.01;101505.59;5000451;28;20037;-67
2023/08/13 10:55:41;;;;;;;8.30;2.63;;;;;;;22.29;55.45;101498.06;5007802;28;20032;-67
2023/08/13 10:58:20;;;;;;;8.98;2.40;;;;;;;22.42;55.21;101506.84;5008630;28;20048;-67
2023/08/13 11:00:46;;;;;;;7.22;2.60;;;;;;;22.58;54.81;101502.50;5008946;28;20461;-67
2023/08/13 11:03:38;;;;;;;10.75;2.35;;;;;;;22.62;55.07;101500.69;5007099;28;20065;-67
2023/08/13 11:06:04;;;;;;;;;;;;;;;22.67;56.31;101497.75;4994688;28;20100;-67
2023/08/13 11:08:30;;;;;;;8.32;2.08;;;;;;;22.77;54.79;101497.50;5008162;28;19968;-67
2023/08/13 11:10:55;;;;;;;7.88;2.47;;;;;;;22.87;55.19;101502.09;5005534;28;20528;-69
2023/08/13 11:13:21;;;;;;;6.55;2.25;;;;;;;22.88;54.84;101500.09;5008524;28;20503;-67
2023/08/13 11:15:54;;;;;;;8.25;2.40;;;;;;;22.85;54.54;101503.56;5007124;28;20022;-67
2023/08/13 11:18:20;;;;;;;10.32;2.60;;;;;;;22.89;54.25;101494.09;4999765;28;20545;-66
2023/08/13 11:20:48;;;;;;;10.45;2.67;;;;;;;22.89;54.10;101488.44;5004090;28;20030;-66
2023/08/13 11:23:14;;;;;;;8.73;2.20;;;;;;;22.89;54.59;101501.75;5008267;28;20026;-67